sensor_id;sensor_type;location;lat;lon;timestamp;P1;P2;P0
70243;PMS7003;57634;51.136;17.024;2023-03-01T00:02:16;40;34;20
70243;PMS7003;57634;51.136;17.024;2023-03-01T00:05:17;37;30;18
70243;PMS7003;57634;51.136;17.024;2023-03-01T00:08:44;37;32;21
70243;PMS7003;57634;51.136;17.024;2023-03-01T00:11:46;41;34;21
70243;PMS7003;57634;51.136;17.024;2023-03-01T00:14:47;43;37;23
70243;PMS7003;57634;51.136;17.024;2023-03-01T00:17:48;46;38;25
70243;PMS7003;57634;51.136;17.024;2023-03-01T00:20:50;43;36;24
70243;PMS7003;57634;51.136;17.024;2023-03-01T00:23:54;45;37;24
70243;PMS7003;57634;51.136;17.024;2023-03-01T00:26:55;42;33;20
70243;PMS7003;57634;51.136;17.024;2023-03-01T00:29:57;44;36;21
70243;PMS7003;57634;51.136;17.024;2023-03-01T00:32:58;38;32;21
70243;PMS7003;57634;51.136;17.024;2023-03-01T00:36:00;42;36;23
70243;PMS7003;57634;51.136;17.024;2023-03-01T00:39:03;44;37;23
70243;PMS7003;57634;51.136;17.024;2023-03-01T00:42:06;48;39;24
70243;PMS7003;57634;51.136;17.024;2023-03-01T00:45:08;45;36;22
70243;PMS7003;57634;51.136;17.024;2023-03-01T00:48:39;46;34;20
70243;PMS7003;57634;51.136;17.024;2023-03-01T00:51:42;46;37;23
70243;PMS7003;57634;51.136;17.024;2023-03-01T00:54:44;46;36;22
70243;PMS7003;57634;51.136;17.024;2023-03-01T00:57:45;40;34;20
70243;PMS7003;57634;51.136;17.024;2023-03-01T01:00:47;42;35;22
70243;PMS7003;57634;51.136;17.024;2023-03-01T01:03:52;46;35;22
70243;PMS7003;57634;51.136;17.024;2023-03-01T01:06:56;42;34;22
70243;PMS7003;57634;51.136;17.024;2023-03-01T01:09:57;46;37;22
70243;PMS7003;57634;51.136;17.024;2023-03-01T01:12:58;46;36;23
70243;PMS7003;57634;51.136;17.024;2023-03-01T01:16:00;47;39;24
70243;PMS7003;57634;51.136;17.024;2023-03-01T01:19:02;48;38;24
70243;PMS7003;57634;51.136;17.024;2023-03-01T01:22:04;48;39;24
70243;PMS7003;57634;51.136;17.024;2023-03-01T01:25:06;49;40;26
70243;PMS7003;57634;51.136;17.024;2023-03-01T01:28:36;49;40;24
70243;PMS7003;57634;51.136;17.024;2023-03-01T01:31:38;44;33;22
70243;PMS7003;57634;51.136;17.024;2023-03-01T01:34:40;51;40;26
70243;PMS7003;57634;51.136;17.024;2023-03-01T01:37:42;50;41;25
70243;PMS7003;57634;51.136;17.024;2023-03-01T01:40:44;33;27;18
70243;PMS7003;57634;51.136;17.024;2023-03-01T01:43:48;52;39;26
70243;PMS7003;57634;51.136;17.024;2023-03-01T01:50:14;44;35;23
70243;PMS7003;57634;51.136;17.024;2023-03-01T01:53:46;49;38;25
70243;PMS7003;57634;51.136;17.024;2023-03-01T01:56:52;45;36;24
70243;PMS7003;57634;51.136;17.024;2023-03-01T01:59:59;39;33;21
70243;PMS7003;57634;51.136;17.024;2023-03-01T02:03:07;46;38;24
70243;PMS7003;57634;51.136;17.024;2023-03-01T02:06:15;49;40;25
70243;PMS7003;57634;51.136;17.024;2023-03-01T02:09:22;46;37;23
70243;PMS7003;57634;51.136;17.024;2023-03-01T02:12:24;53;42;25
70243;PMS7003;57634;51.136;17.024;2023-03-01T02:15:26;51;43;27
70243;PMS7003;57634;51.136;17.024;2023-03-01T02:19:00;43;35;21
70243;PMS7003;57634;51.136;17.024;2023-03-01T02:28:32;45;38;23
70243;PMS7003;57634;51.136;17.024;2023-03-01T02:31:35;50;38;24
70243;PMS7003;57634;51.136;17.024;2023-03-01T02:34:42;48;39;24
70243;PMS7003;57634;51.136;17.024;2023-03-01T02:37:44;45;36;23
70243;PMS7003;57634;51.136;17.024;2023-03-01T02:41:15;48;39;23
70243;PMS7003;57634;51.136;17.024;2023-03-01T02:44:18;44;35;23
70243;PMS7003;57634;51.136;17.024;2023-03-01T02:47:20;44;36;21
70243;PMS7003;57634;51.136;17.024;2023-03-01T02:50:23;47;38;23
70243;PMS7003;57634;51.136;17.024;2023-03-01T02:53:35;44;36;23
70243;PMS7003;57634;51.136;17.024;2023-03-01T02:56:45;46;38;23
70243;PMS7003;57634;51.136;17.024;2023-03-01T02:59:49;45;37;22
70243;PMS7003;57634;51.136;17.024;2023-03-01T03:02:53;47;36;22
70243;PMS7003;57634;51.136;17.024;2023-03-01T03:06:23;40;33;23
70243;PMS7003;57634;51.136;17.024;2023-03-01T03:09:25;49;40;25
70243;PMS7003;57634;51.136;17.024;2023-03-01T03:12:27;46;38;23
70243;PMS7003;57634;51.136;17.024;2023-03-01T03:15:28;40;34;21
70243;PMS7003;57634;51.136;17.024;2023-03-01T03:18:31;43;37;23
70243;PMS7003;57634;51.136;17.024;2023-03-01T03:21:32;45;36;23
70243;PMS7003;57634;51.136;17.024;2023-03-01T03:24:34;46;36;24
70243;PMS7003;57634;51.136;17.024;2023-03-01T03:27:39;46;38;23
70243;PMS7003;57634;51.136;17.024;2023-03-01T03:30:44;42;33;20
70243;PMS7003;57634;51.136;17.024;2023-03-01T03:33:47;46;38;23
70243;PMS7003;57634;51.136;17.024;2023-03-01T03:36:52;46;38;25
70243;PMS7003;57634;51.136;17.024;2023-03-01T03:40:26;43;34;21
70243;PMS7003;57634;51.136;17.024;2023-03-01T03:43:31;42;35;20
70243;PMS7003;57634;51.136;17.024;2023-03-01T03:46:34;45;37;23
70243;PMS7003;57634;51.136;17.024;2023-03-01T03:49:36;48;37;22
70243;PMS7003;57634;51.136;17.024;2023-03-01T03:52:37;46;36;23
70243;PMS7003;57634;51.136;17.024;2023-03-01T03:55:39;44;34;21
70243;PMS7003;57634;51.136;17.024;2023-03-01T03:58:40;46;38;24
70243;PMS7003;57634;51.136;17.024;2023-03-01T04:01:41;37;31;17
70243;PMS7003;57634;51.136;17.024;2023-03-01T04:04:44;42;36;23
70243;PMS7003;57634;51.136;17.024;2023-03-01T04:07:46;46;36;23
70243;PMS7003;57634;51.136;17.024;2023-03-01T04:10:49;38;32;19
70243;PMS7003;57634;51.136;17.024;2023-03-01T04:13:53;47;35;22
70243;PMS7003;57634;51.136;17.024;2023-03-01T04:17:22;42;34;23
70243;PMS7003;57634;51.136;17.024;2023-03-01T04:20:25;45;36;23
70243;PMS7003;57634;51.136;17.024;2023-03-01T04:23:29;45;34;23
70243;PMS7003;57634;51.136;17.024;2023-03-01T04:26:30;42;36;23
70243;PMS7003;57634;51.136;17.024;2023-03-01T04:29:31;48;37;23
70243;PMS7003;57634;51.136;17.024;2023-03-01T04:32:32;47;38;23
70243;PMS7003;57634;51.136;17.024;2023-03-01T04:35:34;44;36;21
70243;PMS7003;57634;51.136;17.024;2023-03-01T04:38:37;41;35;22
70243;PMS7003;57634;51.136;17.024;2023-03-01T04:41:40;46;38;24
70243;PMS7003;57634;51.136;17.024;2023-03-01T04:44:44;44;37;23
70243;PMS7003;57634;51.136;17.024;2023-03-01T04:47:46;46;38;24
70243;PMS7003;57634;51.136;17.024;2023-03-01T04:50:47;35;26;16
70243;PMS7003;57634;51.136;17.024;2023-03-01T04:53:49;46;40;25
70243;PMS7003;57634;51.136;17.024;2023-03-01T04:57:17;48;37;23
70243;PMS7003;57634;51.136;17.024;2023-03-01T05:00:18;47;38;24
70243;PMS7003;57634;51.136;17.024;2023-03-01T05:03:21;48;39;24
70243;PMS7003;57634;51.136;17.024;2023-03-01T05:06:23;49;39;24
70243;PMS7003;57634;51.136;17.024;2023-03-01T05:09:24;50;42;24
70243;PMS7003;57634;51.136;17.024;2023-03-01T05:12:25;46;37;22
70243;PMS7003;57634;51.136;17.024;2023-03-01T05:15:27;43;33;21
70243;PMS7003;57634;51.136;17.024;2023-03-01T05:18:31;47;37;24
70243;PMS7003;57634;51.136;17.024;2023-03-01T05:21:34;47;38;25
70243;PMS7003;57634;51.136;17.024;2023-03-01T05:24:45;48;41;25
70243;PMS7003;57634;51.136;17.024;2023-03-01T05:27:47;56;43;29
70243;PMS7003;57634;51.136;17.024;2023-03-01T05:31:16;48;39;23
70243;PMS7003;57634;51.136;17.024;2023-03-01T05:34:17;39;32;15
70243;PMS7003;57634;51.136;17.024;2023-03-01T05:37:20;42;34;20
70243;PMS7003;57634;51.136;17.024;2023-03-01T05:40:22;43;35;22
70243;PMS7003;57634;51.136;17.024;2023-03-01T05:43:25;51;40;26
70243;PMS7003;57634;51.136;17.024;2023-03-01T05:46:26;46;37;22
70243;PMS7003;57634;51.136;17.024;2023-03-01T05:49:31;44;36;23
70243;PMS7003;57634;51.136;17.024;2023-03-01T05:52:33;43;34;22
70243;PMS7003;57634;51.136;17.024;2023-03-01T05:55:35;52;39;25
70243;PMS7003;57634;51.136;17.024;2023-03-01T05:58:37;45;36;22
70243;PMS7003;57634;51.136;17.024;2023-03-01T06:01:39;47;36;25
70243;PMS7003;57634;51.136;17.024;2023-03-01T06:04:41;38;34;22
70243;PMS7003;57634;51.136;17.024;2023-03-01T06:07:42;48;39;24
70243;PMS7003;57634;51.136;17.024;2023-03-01T06:11:11;46;36;22
70243;PMS7003;57634;51.136;17.024;2023-03-01T06:14:12;39;32;16
70243;PMS7003;57634;51.136;17.024;2023-03-01T06:17:15;45;38;24
70243;PMS7003;57634;51.136;17.024;2023-03-01T06:20:20;52;38;24
70243;PMS7003;57634;51.136;17.024;2023-03-01T06:23:23;52;41;24
70243;PMS7003;57634;51.136;17.024;2023-03-01T06:26:25;37;32;21
70243;PMS7003;57634;51.136;17.024;2023-03-01T06:29:26;41;35;23
70243;PMS7003;57634;51.136;17.024;2023-03-01T06:32:28;36;30;18
70243;PMS7003;57634;51.136;17.024;2023-03-01T06:35:32;47;35;24
70243;PMS7003;57634;51.136;17.024;2023-03-01T06:38:38;47;37;24
70243;PMS7003;57634;51.136;17.024;2023-03-01T06:41:41;52;39;25
70243;PMS7003;57634;51.136;17.024;2023-03-01T06:45:10;47;38;25
70243;PMS7003;57634;51.136;17.024;2023-03-01T06:48:12;48;39;25
70243;PMS7003;57634;51.136;17.024;2023-03-01T06:51:13;52;41;26
70243;PMS7003;57634;51.136;17.024;2023-03-01T06:54:14;51;41;26
70243;PMS7003;57634;51.136;17.024;2023-03-01T06:57:23;56;45;29
70243;PMS7003;57634;51.136;17.024;2023-03-01T07:00:24;57;46;29
70243;PMS7003;57634;51.136;17.024;2023-03-01T07:03:29;57;45;28
70243;PMS7003;57634;51.136;17.024;2023-03-01T07:06:30;52;42;29
70243;PMS7003;57634;51.136;17.024;2023-03-01T07:09:31;54;42;27
70243;PMS7003;57634;51.136;17.024;2023-03-01T07:12:32;58;45;29
70243;PMS7003;57634;51.136;17.024;2023-03-01T07:15:33;57;45;28
70243;PMS7003;57634;51.136;17.024;2023-03-01T07:18:35;62;48;30
70243;PMS7003;57634;51.136;17.024;2023-03-01T07:21:37;59;46;29
70243;PMS7003;57634;51.136;17.024;2023-03-01T07:25:08;58;46;28
70243;PMS7003;57634;51.136;17.024;2023-03-01T07:28:10;55;45;29
70243;PMS7003;57634;51.136;17.024;2023-03-01T07:31:11;57;46;30
70243;PMS7003;57634;51.136;17.024;2023-03-01T07:34:13;57;44;28
70243;PMS7003;57634;51.136;17.024;2023-03-01T07:37:14;57;46;29
70243;PMS7003;57634;51.136;17.024;2023-03-01T07:40:16;59;46;29
70243;PMS7003;57634;51.136;17.024;2023-03-01T07:43:17;52;42;27
70243;PMS7003;57634;51.136;17.024;2023-03-01T07:46:20;55;43;28
70243;PMS7003;57634;51.136;17.024;2023-03-01T07:49:21;57;46;29
70243;PMS7003;57634;51.136;17.024;2023-03-01T07:52:23;56;44;28
70243;PMS7003;57634;51.136;17.024;2023-03-01T07:55:25;52;42;27
70243;PMS7003;57634;51.136;17.024;2023-03-01T07:58:26;54;43;27
70243;PMS7003;57634;51.136;17.024;2023-03-01T08:01:28;53;42;25
70243;PMS7003;57634;51.136;17.024;2023-03-01T08:04:29;55;43;27
70243;PMS7003;57634;51.136;17.024;2023-03-01T08:07:30;47;38;24
70243;PMS7003;57634;51.136;17.024;2023-03-01T08:10:58;49;41;26
70243;PMS7003;57634;51.136;17.024;2023-03-01T08:14:00;42;34;22
70243;PMS7003;57634;51.136;17.024;2023-03-01T08:17:01;41;33;22
70243;PMS7003;57634;51.136;17.024;2023-03-01T08:20:03;40;34;22
70243;PMS7003;57634;51.136;17.024;2023-03-01T08:23:08;40;32;21
70243;PMS7003;57634;51.136;17.024;2023-03-01T08:29:19;36;30;19
70243;PMS7003;57634;51.136;17.024;2023-03-01T08:32:20;38;32;21
70243;PMS7003;57634;51.136;17.024;2023-03-01T08:35:21;44;35;22
70243;PMS7003;57634;51.136;17.024;2023-03-01T08:38:22;41;32;21
70243;PMS7003;57634;51.136;17.024;2023-03-01T08:41:24;49;39;26
70243;PMS7003;57634;51.136;17.024;2023-03-01T08:44:26;47;38;24
70243;PMS7003;57634;51.136;17.024;2023-03-01T08:47:54;53;42;27
70243;PMS7003;57634;51.136;17.024;2023-03-01T08:50:55;47;39;24
70243;PMS7003;57634;51.136;17.024;2023-03-01T08:53:57;44;36;24
70243;PMS7003;57634;51.136;17.024;2023-03-01T08:57:00;49;39;24
70243;PMS7003;57634;51.136;17.024;2023-03-01T09:00:03;45;38;23
70243;PMS7003;57634;51.136;17.024;2023-03-01T09:03:09;43;34;22
70243;PMS7003;57634;51.136;17.024;2023-03-01T09:06:10;44;34;22
70243;PMS7003;57634;51.136;17.024;2023-03-01T09:09:13;44;36;23
70243;PMS7003;57634;51.136;17.024;2023-03-01T09:12:18;46;37;24
70243;PMS7003;57634;51.136;17.024;2023-03-01T09:15:20;43;34;22
70243;PMS7003;57634;51.136;17.024;2023-03-01T09:18:21;38;31;21
70243;PMS7003;57634;51.136;17.024;2023-03-01T09:21:23;45;35;22
70243;PMS7003;57634;51.136;17.024;2023-03-01T09:24:51;38;33;21
70243;PMS7003;57634;51.136;17.024;2023-03-01T09:27:52;25;22;11
70243;PMS7003;57634;51.136;17.024;2023-03-01T09:30:57;33;28;19
70243;PMS7003;57634;51.136;17.024;2023-03-01T09:33:59;28;25;14
70243;PMS7003;57634;51.136;17.024;2023-03-01T09:37:01;36;29;18
70243;PMS7003;57634;51.136;17.024;2023-03-01T09:40:08;32;28;19
70243;PMS7003;57634;51.136;17.024;2023-03-01T09:43:26;40;33;21
70243;PMS7003;57634;51.136;17.024;2023-03-01T09:47:02;31;27;20
70243;PMS7003;57634;51.136;17.024;2023-03-01T09:53:14;31;28;19
70243;PMS7003;57634;51.136;17.024;2023-03-01T09:56:20;34;28;17
70243;PMS7003;57634;51.136;17.024;2023-03-01T09:59:30;37;31;19
70243;PMS7003;57634;51.136;17.024;2023-03-01T10:02:41;33;29;18
70243;PMS7003;57634;51.136;17.024;2023-03-01T10:06:20;33;28;18
70243;PMS7003;57634;51.136;17.024;2023-03-01T10:09:26;31;27;17
70243;PMS7003;57634;51.136;17.024;2023-03-01T10:12:37;33;28;18
70243;PMS7003;57634;51.136;17.024;2023-03-01T10:18:58;23;20;15
70243;PMS7003;57634;51.136;17.024;2023-03-01T10:22:28;26;25;16
70243;PMS7003;57634;51.136;17.024;2023-03-01T10:25:38;27;26;17
70243;PMS7003;57634;51.136;17.024;2023-03-01T10:28:47;31;25;18
70243;PMS7003;57634;51.136;17.024;2023-03-01T10:31:56;29;27;17
70243;PMS7003;57634;51.136;17.024;2023-03-01T10:34:58;27;26;18
70243;PMS7003;57634;51.136;17.024;2023-03-01T10:38:06;24;20;12
70243;PMS7003;57634;51.136;17.024;2023-03-01T10:41:10;26;23;15
70243;PMS7003;57634;51.136;17.024;2023-03-01T10:47:57;24;22;15
70243;PMS7003;57634;51.136;17.024;2023-03-01T10:51:05;25;22;13
70243;PMS7003;57634;51.136;17.024;2023-03-01T11:01:01;26;24;16
70243;PMS7003;57634;51.136;17.024;2023-03-01T11:07:14;26;22;15
70243;PMS7003;57634;51.136;17.024;2023-03-01T11:10:19;29;25;16
70243;PMS7003;57634;51.136;17.024;2023-03-01T11:13:28;27;25;17
70243;PMS7003;57634;51.136;17.024;2023-03-01T11:19:43;25;22;15
70243;PMS7003;57634;51.136;17.024;2023-03-01T11:23:22;23;20;14
70243;PMS7003;57634;51.136;17.024;2023-03-01T11:26:24;29;24;15
70243;PMS7003;57634;51.136;17.024;2023-03-01T11:32:38;22;18;11
70243;PMS7003;57634;51.136;17.024;2023-03-01T11:35:49;19;18;11
70243;PMS7003;57634;51.136;17.024;2023-03-01T11:38:56;24;21;13
70243;PMS7003;57634;51.136;17.024;2023-03-01T11:59:55;19;17;11
70243;PMS7003;57634;51.136;17.024;2023-03-01T12:08:56;19;16;11
70243;PMS7003;57634;51.136;17.024;2023-03-01T12:12:32;13;12;8
70243;PMS7003;57634;51.136;17.024;2023-03-01T12:19:01;19;17;10
70243;PMS7003;57634;51.136;17.024;2023-03-01T12:29:02;14;13;9
70243;PMS7003;57634;51.136;17.024;2023-03-01T12:42:24;11;10;7
70243;PMS7003;57634;51.136;17.024;2023-03-01T12:52:33;11;10;7
70243;PMS7003;57634;51.136;17.024;2023-03-01T12:55:42;11;9;7
70243;PMS7003;57634;51.136;17.024;2023-03-01T13:02:02;3;2;1
70243;PMS7003;57634;51.136;17.024;2023-03-01T13:08:56;10;10;7
70243;PMS7003;57634;51.136;17.024;2023-03-01T13:12:04;12;12;7
70243;PMS7003;57634;51.136;17.024;2023-03-01T13:18:28;9;9;6
70243;PMS7003;57634;51.136;17.024;2023-03-01T13:21:32;10;9;7
70243;PMS7003;57634;51.136;17.024;2023-03-01T13:37:43;13;13;8
70243;PMS7003;57634;51.136;17.024;2023-03-01T13:40:56;12;11;7
70243;PMS7003;57634;51.136;17.024;2023-03-01T13:47:39;10;9;5
70243;PMS7003;57634;51.136;17.024;2023-03-01T13:50:45;15;14;9
70243;PMS7003;57634;51.136;17.024;2023-03-01T13:53:51;9;9;7
70243;PMS7003;57634;51.136;17.024;2023-03-01T13:56:57;14;12;7
70243;PMS7003;57634;51.136;17.024;2023-03-01T14:00:00;12;11;8
70243;PMS7003;57634;51.136;17.024;2023-03-01T14:06:38;11;9;7
70243;PMS7003;57634;51.136;17.024;2023-03-01T14:09:40;13;13;8
70243;PMS7003;57634;51.136;17.024;2023-03-01T14:12:47;18;13;9
70243;PMS7003;57634;51.136;17.024;2023-03-01T14:19:18;13;13;9
70243;PMS7003;57634;51.136;17.024;2023-03-01T14:22:57;13;12;9
70243;PMS7003;57634;51.136;17.024;2023-03-01T14:26:01;11;9;6
70243;PMS7003;57634;51.136;17.024;2023-03-01T14:29:03;12;10;7
70243;PMS7003;57634;51.136;17.024;2023-03-01T14:32:08;15;14;9
70243;PMS7003;57634;51.136;17.024;2023-03-01T14:38:29;13;11;8
70243;PMS7003;57634;51.136;17.024;2023-03-01T14:42:05;11;11;6
70243;PMS7003;57634;51.136;17.024;2023-03-01T14:45:09;11;9;6
70243;PMS7003;57634;51.136;17.024;2023-03-01T14:48:13;15;12;7
70243;PMS7003;57634;51.136;17.024;2023-03-01T14:51:14;16;14;10
70243;PMS7003;57634;51.136;17.024;2023-03-01T14:57:27;11;11;7
70243;PMS7003;57634;51.136;17.024;2023-03-01T15:00:29;11;10;7
70243;PMS7003;57634;51.136;17.024;2023-03-01T15:03:35;13;11;7
70243;PMS7003;57634;51.136;17.024;2023-03-01T15:06:41;12;11;8
70243;PMS7003;57634;51.136;17.024;2023-03-01T15:10:16;16;12;9
70243;PMS7003;57634;51.136;17.024;2023-03-01T15:13:23;14;13;10
70243;PMS7003;57634;51.136;17.024;2023-03-01T15:16:27;12;12;8
70243;PMS7003;57634;51.136;17.024;2023-03-01T15:19:31;19;16;10
70243;PMS7003;57634;51.136;17.024;2023-03-01T15:22:33;10;9;6
70243;PMS7003;57634;51.136;17.024;2023-03-01T15:25:36;14;12;7
70243;PMS7003;57634;51.136;17.024;2023-03-01T15:28:42;11;10;8
70243;PMS7003;57634;51.136;17.024;2023-03-01T15:41:59;14;14;9
70243;PMS7003;57634;51.136;17.024;2023-03-01T15:48:35;15;14;9
70243;PMS7003;57634;51.136;17.024;2023-03-01T15:51:36;14;13;9
70243;PMS7003;57634;51.136;17.024;2023-03-01T15:54:38;15;13;10
70243;PMS7003;57634;51.136;17.024;2023-03-01T15:57:41;11;10;7
70243;PMS7003;57634;51.136;17.024;2023-03-01T16:00:44;11;10;7
70243;PMS7003;57634;51.136;17.024;2023-03-01T16:03:46;15;14;9
70243;PMS7003;57634;51.136;17.024;2023-03-01T16:06:47;13;12;8
70243;PMS7003;57634;51.136;17.024;2023-03-01T16:09:56;17;12;8
70243;PMS7003;57634;51.136;17.024;2023-03-01T16:12:58;18;14;10
70243;PMS7003;57634;51.136;17.024;2023-03-01T16:16:00;17;13;9
70243;PMS7003;57634;51.136;17.024;2023-03-01T16:19:01;16;14;10
70243;PMS7003;57634;51.136;17.024;2023-03-01T16:22:03;14;14;9
70243;PMS7003;57634;51.136;17.024;2023-03-01T16:25:31;19;17;11
70243;PMS7003;57634;51.136;17.024;2023-03-01T16:28:33;18;14;10
70243;PMS7003;57634;51.136;17.024;2023-03-01T16:31:34;18;15;10
70243;PMS7003;57634;51.136;17.024;2023-03-01T16:34:35;22;18;11
70243;PMS7003;57634;51.136;17.024;2023-03-01T16:37:37;18;17;9
70243;PMS7003;57634;51.136;17.024;2023-03-01T16:40:39;20;18;12
70243;PMS7003;57634;51.136;17.024;2023-03-01T16:43:50;25;19;12
70243;PMS7003;57634;51.136;17.024;2023-03-01T16:46:52;18;18;12
70243;PMS7003;57634;51.136;17.024;2023-03-01T16:49:54;19;16;10
70243;PMS7003;57634;51.136;17.024;2023-03-01T16:52:55;21;18;10
70243;PMS7003;57634;51.136;17.024;2023-03-01T16:55:57;17;14;10
70243;PMS7003;57634;51.136;17.024;2023-03-01T16:59:28;20;18;13
70243;PMS7003;57634;51.136;17.024;2023-03-01T17:02:29;21;18;11
70243;PMS7003;57634;51.136;17.024;2023-03-01T17:05:30;21;20;12
70243;PMS7003;57634;51.136;17.024;2023-03-01T17:08:31;23;21;13
70243;PMS7003;57634;51.136;17.024;2023-03-01T17:11:33;22;20;14
70243;PMS7003;57634;51.136;17.024;2023-03-01T17:14:36;26;21;14
70243;PMS7003;57634;51.136;17.024;2023-03-01T17:17:39;26;21;14
70243;PMS7003;57634;51.136;17.024;2023-03-01T17:20:40;18;17;11
70243;PMS7003;57634;51.136;17.024;2023-03-01T17:23:42;21;20;13
70243;PMS7003;57634;51.136;17.024;2023-03-01T17:26:46;20;19;12
70243;PMS7003;57634;51.136;17.024;2023-03-01T17:29:47;21;19;13
70243;PMS7003;57634;51.136;17.024;2023-03-01T17:32:49;24;22;13
70243;PMS7003;57634;51.136;17.024;2023-03-01T17:35:52;23;20;14
70243;PMS7003;57634;51.136;17.024;2023-03-01T17:39:20;21;19;13
70243;PMS7003;57634;51.136;17.024;2023-03-01T17:42:28;26;21;14
70243;PMS7003;57634;51.136;17.024;2023-03-01T17:45:30;23;20;14
70243;PMS7003;57634;51.136;17.024;2023-03-01T17:48:31;28;23;15
70243;PMS7003;57634;51.136;17.024;2023-03-01T17:51:33;31;25;16
70243;PMS7003;57634;51.136;17.024;2023-03-01T17:54:34;27;26;17
70243;PMS7003;57634;51.136;17.024;2023-03-01T17:57:39;30;27;17
70243;PMS7003;57634;51.136;17.024;2023-03-01T18:00:41;24;24;15
70243;PMS7003;57634;51.136;17.024;2023-03-01T18:03:42;27;23;16
70243;PMS7003;57634;51.136;17.024;2023-03-01T18:06:44;25;22;15
70243;PMS7003;57634;51.136;17.024;2023-03-01T18:09:46;31;25;16
70243;PMS7003;57634;51.136;17.024;2023-03-01T18:12:47;32;29;19
70243;PMS7003;57634;51.136;17.024;2023-03-01T18:16:16;28;25;17
70243;PMS7003;57634;51.136;17.024;2023-03-01T18:19:19;25;23;17
70243;PMS7003;57634;51.136;17.024;2023-03-01T18:22:21;40;34;22
70243;PMS7003;57634;51.136;17.024;2023-03-01T18:25:23;37;31;21
70243;PMS7003;57634;51.136;17.024;2023-03-01T18:28:24;50;42;26
70243;PMS7003;57634;51.136;17.024;2023-03-01T18:31:25;64;49;30
70243;PMS7003;57634;51.136;17.024;2023-03-01T18:34:28;68;54;34
70243;PMS7003;57634;51.136;17.024;2023-03-01T18:37:29;59;45;27
70243;PMS7003;57634;51.136;17.024;2023-03-01T18:40:31;60;46;30
70243;PMS7003;57634;51.136;17.024;2023-03-01T18:43:33;60;47;30
70243;PMS7003;57634;51.136;17.024;2023-03-01T18:46:35;58;45;29
70243;PMS7003;57634;51.136;17.024;2023-03-01T18:49:39;59;46;27
70243;PMS7003;57634;51.136;17.024;2023-03-01T18:52:41;61;49;31
70243;PMS7003;57634;51.136;17.024;2023-03-01T18:56:10;58;44;25
70243;PMS7003;57634;51.136;17.024;2023-03-01T18:59:12;50;40;27
70243;PMS7003;57634;51.136;17.024;2023-03-01T19:02:13;46;37;22
70243;PMS7003;57634;51.136;17.024;2023-03-01T19:05:15;43;36;23
70243;PMS7003;57634;51.136;17.024;2023-03-01T19:08:16;46;39;24
70243;PMS7003;57634;51.136;17.024;2023-03-01T19:11:17;52;40;26
70243;PMS7003;57634;51.136;17.024;2023-03-01T19:14:18;44;35;21
70243;PMS7003;57634;51.136;17.024;2023-03-01T19:17:22;49;39;24
70243;PMS7003;57634;51.136;17.024;2023-03-01T19:20:30;35;30;16
70243;PMS7003;57634;51.136;17.024;2023-03-01T19:23:32;40;32;20
70243;PMS7003;57634;51.136;17.024;2023-03-01T19:26:34;45;38;25
70243;PMS7003;57634;51.136;17.024;2023-03-01T19:29:36;47;41;25
70243;PMS7003;57634;51.136;17.024;2023-03-01T19:32:37;43;36;22
70243;PMS7003;57634;51.136;17.024;2023-03-01T19:36:04;38;33;21
70243;PMS7003;57634;51.136;17.024;2023-03-01T19:39:08;39;32;20
70243;PMS7003;57634;51.136;17.024;2023-03-01T19:42:12;38;34;21
70243;PMS7003;57634;51.136;17.024;2023-03-01T19:45:14;45;37;23
70243;PMS7003;57634;51.136;17.024;2023-03-01T19:48:16;50;39;21
70243;PMS7003;57634;51.136;17.024;2023-03-01T19:51:17;58;47;29
70243;PMS7003;57634;51.136;17.024;2023-03-01T19:54:19;59;47;28
70243;PMS7003;57634;51.136;17.024;2023-03-01T19:57:22;50;41;25
70243;PMS7003;57634;51.136;17.024;2023-03-01T20:00:24;57;41;27
70243;PMS7003;57634;51.136;17.024;2023-03-01T20:03:29;52;43;27
70243;PMS7003;57634;51.136;17.024;2023-03-01T20:06:32;57;46;29
70243;PMS7003;57634;51.136;17.024;2023-03-01T20:09:33;61;50;32
70243;PMS7003;57634;51.136;17.024;2023-03-01T20:13:01;64;52;32
70243;PMS7003;57634;51.136;17.024;2023-03-01T20:16:03;55;45;29
70243;PMS7003;57634;51.136;17.024;2023-03-01T20:19:05;54;42;26
70243;PMS7003;57634;51.136;17.024;2023-03-01T20:22:06;47;40;25
70243;PMS7003;57634;51.136;17.024;2023-03-01T20:25:09;47;39;24
70243;PMS7003;57634;51.136;17.024;2023-03-01T20:28:10;51;40;25
70243;PMS7003;57634;51.136;17.024;2023-03-01T20:31:12;51;41;26
70243;PMS7003;57634;51.136;17.024;2023-03-01T20:34:15;58;43;28
70243;PMS7003;57634;51.136;17.024;2023-03-01T20:37:17;58;46;31
70243;PMS7003;57634;51.136;17.024;2023-03-01T20:40:18;64;51;34
70243;PMS7003;57634;51.136;17.024;2023-03-01T20:43:26;61;47;30
70243;PMS7003;57634;51.136;17.024;2023-03-01T20:46:28;62;48;29
70243;PMS7003;57634;51.136;17.024;2023-03-01T20:49:58;58;46;30
70243;PMS7003;57634;51.136;17.024;2023-03-01T20:53:02;59;48;29
70243;PMS7003;57634;51.136;17.024;2023-03-01T20:56:08;60;47;30
70243;PMS7003;57634;51.136;17.024;2023-03-01T20:59:11;60;47;30
70243;PMS7003;57634;51.136;17.024;2023-03-01T21:02:13;61;47;30
70243;PMS7003;57634;51.136;17.024;2023-03-01T21:05:14;64;53;33
70243;PMS7003;57634;51.136;17.024;2023-03-01T21:08:15;49;37;17
70243;PMS7003;57634;51.136;17.024;2023-03-01T21:11:16;67;53;34
70243;PMS7003;57634;51.136;17.024;2023-03-01T21:14:19;71;55;35
70243;PMS7003;57634;51.136;17.024;2023-03-01T21:17:22;68;54;35
70243;PMS7003;57634;51.136;17.024;2023-03-01T21:20:23;68;53;35
70243;PMS7003;57634;51.136;17.024;2023-03-01T21:23:24;62;50;31
70243;PMS7003;57634;51.136;17.024;2023-03-01T21:26:55;55;44;28
70243;PMS7003;57634;51.136;17.024;2023-03-01T21:29:56;60;46;30
70243;PMS7003;57634;51.136;17.024;2023-03-01T21:32:58;61;48;30
70243;PMS7003;57634;51.136;17.024;2023-03-01T21:36:02;59;47;30
70243;PMS7003;57634;51.136;17.024;2023-03-01T21:39:06;37;33;26
70243;PMS7003;57634;51.136;17.024;2023-03-01T21:42:08;52;42;26
70243;PMS7003;57634;51.136;17.024;2023-03-01T21:45:09;49;38;26
70243;PMS7003;57634;51.136;17.024;2023-03-01T21:48:11;52;41;27
70243;PMS7003;57634;51.136;17.024;2023-03-01T21:51:13;53;43;26
70243;PMS7003;57634;51.136;17.024;2023-03-01T21:54:17;50;41;26
70243;PMS7003;57634;51.136;17.024;2023-03-01T21:57:22;56;44;27
70243;PMS7003;57634;51.136;17.024;2023-03-01T22:00:24;54;41;27
70243;PMS7003;57634;51.136;17.024;2023-03-01T22:03:52;44;37;25